College Hill, Texas
Current Conditions -  °F | °C
As of 10:35 AM on Tuesday 27 Jan 2015 (Local Time) from KOSA Reporting Station
Clear Clear  
Wind Chill: 64°   Ceiling: Unl
Heat Index: 64°   Visibility: 10mi
Dew Point: 42°   Wind: 3mph
Humidity: 44%   Direction: 50°NE
Pressure: 30.19"   Gusts: NA
Location:  33.4703°N, 94.6281°W
Report Text: KOSA 271635Z AUTO 05003KT 10SM CLR 18/05 A3019 RMK AO1 T01760053
Loading
Personal Weather Stations






























Interactive Weather Map New forecast layout! Learn more

10-Day Weather Forecast

Advertisements
Track Severe Weather on mobile